Time;durP1;ratioP1;P1;durP2;ratioP2;P2;SDS_P1;SDS_P2;PMS_P1;PMS_P2;Temp;Humidity;BMP_temperature;BMP_pressure;BME280_temperature;BME280_humidity;BME280_pressure;Samples;Min_cycle;Max_cycle;Signal;HPM_P1;HPM_P2
2024/01/02 00:01:55;;;;;;;6.80;1.97;;;;;;;;;;5020838;28;20597;-77
2024/01/02 00:04:21;;;;;;;7.73;2.00;;;;;;;;;;5018038;28;20186;-78
2024/01/02 00:06:48;;;;;;;6.13;1.80;;;;;;;;;;5016656;28;20214;-76
2024/01/02 00:09:15;;;;;;;5.40;1.73;;;;;;;;;;5013923;28;20386;-76
2024/01/02 00:11:42;;;;;;;7.43;1.90;;;;;;;;;;5014809;28;20206;-76
2024/01/02 00:14:08;;;;;;;4.20;1.40;;;;;;;;;;5013187;28;20184;-77
2024/01/02 00:16:34;;;;;;;4.17;1.73;;;;;;;;;;5015361;28;20678;-76
2024/01/02 00:19:00;;;;;;;5.57;1.67;;;;;;;;;;5022085;28;20275;-77
2024/01/02 00:21:26;;;;;;;4.27;1.63;;;;;;;;;;5028646;28;20241;-77
2024/01/02 00:23:53;;;;;;;3.10;1.60;;;;;;;;;;5028771;28;20202;-77
2024/01/02 00:26:19;;;;;;;4.27;1.60;;;;;;;;;;5032123;28;20210;-77
2024/01/02 00:28:45;;;;;;;2.67;1.40;;;;;;;;;;5026699;28;20535;-77
2024/01/02 00:31:12;;;;;;;6.23;1.87;;;;;;;;;;5011277;28;20183;-76
2024/01/02 00:33:39;;;;;;;3.80;1.63;;;;;;;;;;5014989;28;20720;-77
2024/01/02 00:36:10;;;;;;;5.37;1.50;;;;;;;;;;5027905;28;20182;-77
2024/01/02 00:38:36;;;;;;;6.83;1.87;;;;;;;;;;5000433;28;20272;-76
2024/01/02 00:41:03;;;;;;;3.60;1.50;;;;;;;;;;4996503;28;20195;-77
2024/01/02 00:43:29;;;;;;;7.03;1.87;;;;;;;;;;5032828;28;20214;-78
2024/01/02 00:45:56;;;;;;;5.13;1.60;;;;;;;;;;5028120;28;20194;-78
2024/01/02 00:48:22;;;;;;;2.37;1.20;;;;;;;;;;5032648;28;20242;-76
2024/01/02 00:50:48;;;;;;;4.03;1.50;;;;;;;;;;5032933;28;20265;-77
2024/01/02 00:53:14;;;;;;;6.10;1.80;;;;;;;;;;5034592;28;20207;-79
2024/01/02 00:55:41;;;;;;;5.80;1.67;;;;;;;;;;5007479;28;20185;-77
2024/01/02 00:58:07;;;;;;;3.67;1.33;;;;;;;;;;5027570;28;20230;-77
2024/01/02 01:00:33;;;;;;;3.83;1.50;;;;;;;;;;5027975;28;20218;-77
2024/01/02 01:03:00;;;;;;;3.33;1.43;;;;;;;;;;5027479;28;20198;-76
2024/01/02 01:05:26;;;;;;;6.70;1.40;;;;;;;;;;5033262;28;20182;-77
2024/01/02 01:07:52;;;;;;;5.77;1.60;;;;;;;;;;5029572;28;20237;-77
2024/01/02 01:10:19;;;;;;;4.10;1.40;;;;;;;;;;5032364;28;20269;-77
2024/01/02 01:12:45;;;;;;;5.00;1.30;;;;;;;;;;5028806;28;20718;-77
2024/01/02 01:15:11;;;;;;;3.30;1.50;;;;;;;;;;5033009;28;20186;-77
2024/01/02 01:17:39;;;;;;;1.67;1.20;;;;;;;;;;5029052;28;20194;-76
2024/01/02 01:20:06;;;;;;;4.03;1.40;;;;;;;;;;5030038;28;20178;-76
2024/01/02 01:22:32;;;;;;;2.60;1.40;;;;;;;;;;5033309;28;20233;-76
2024/01/02 01:24:58;;;;;;;3.67;1.50;;;;;;;;;;5029682;28;20712;-76
2024/01/02 01:27:24;;;;;;;2.13;1.13;;;;;;;;;;5012634;28;20215;-77
2024/01/02 01:29:50;;;;;;;4.50;1.50;;;;;;;;;;5032507;28;20272;-76
2024/01/02 01:32:17;;;;;;;2.87;1.30;;;;;;;;;;5034439;28;20198;-76
2024/01/02 01:34:43;;;;;;;2.63;1.03;;;;;;;;;;5012724;28;20280;-76
2024/01/02 01:37:09;;;;;;;4.07;1.17;;;;;;;;;;5030327;28;20581;-76
2024/01/02 01:39:35;;;;;;;3.43;1.20;;;;;;;;;;5033501;28;20197;-77
2024/01/02 01:42:02;;;;;;;3.73;1.23;;;;;;;;;;5030969;28;20199;-76
2024/01/02 01:44:28;;;;;;;4.83;1.40;;;;;;;;;;5029681;28;20272;-77
2024/01/02 01:46:54;;;;;;;3.60;1.30;;;;;;;;;;5024984;28;20256;-78
2024/01/02 01:49:21;;;;;;;3.03;1.37;;;;;;;;;;5029552;28;20204;-77
2024/01/02 01:51:47;;;;;;;2.80;1.13;;;;;;;;;;5026286;28;20218;-76
2024/01/02 01:54:14;;;;;;;2.00;0.90;;;;;;;;;;5029516;28;20182;-77
2024/01/02 01:56:42;;;;;;;3.77;2.70;;;;;;;;;;5027759;28;20531;-77
2024/01/02 01:59:08;;;;;;;3.30;1.30;;;;;;;;;;5028106;28;20186;-77
2024/01/02 02:01:35;;;;;;;3.33;1.23;;;;;;;;;;5026698;28;20700;-79
2024/01/02 02:04:01;;;;;;;3.57;1.40;;;;;;;;;;5024285;28;20712;-77
2024/01/02 02:06:28;;;;;;;3.33;1.30;;;;;;;;;;4992286;28;20210;-77
2024/01/02 02:08:54;;;;;;;3.37;1.10;;;;;;;;;;5013268;28;20278;-77
2024/01/02 02:11:20;;;;;;;1.70;1.07;;;;;;;;;;5027233;28;20193;-77
2024/01/02 02:13:47;;;;;;;3.63;1.20;;;;;;;;;;5023872;28;20178;-76
2024/01/02 02:16:14;;;;;;;2.67;1.30;;;;;;;;;;5026821;28;20648;-77
2024/01/02 02:18:40;;;;;;;4.07;1.40;;;;;;;;;;5030140;28;20190;-77
2024/01/02 02:21:06;;;;;;;5.40;1.47;;;;;;;;;;5029330;28;20240;-77
2024/01/02 02:23:32;;;;;;;2.63;1.00;;;;;;;;;;5014903;28;20468;-77
2024/01/02 02:25:59;;;;;;;2.23;1.20;;;;;;;;;;5030330;28;20186;-76
2024/01/02 02:28:25;;;;;;;2.30;1.30;;;;;;;;;;5029078;28;20195;-77
2024/01/02 02:30:51;;;;;;;3.63;1.33;;;;;;;;;;5026092;28;20216;-77
2024/01/02 02:33:18;;;;;;;2.63;1.20;;;;;;;;;;5019676;28;20215;-76
2024/01/02 02:35:45;;;;;;;3.07;1.30;;;;;;;;;;5018225;28;20187;-76
2024/01/02 02:38:11;;;;;;;2.20;1.20;;;;;;;;;;5014257;28;20206;-76
2024/01/02 02:40:38;;;;;;;2.93;1.10;;;;;;;;;;5026210;28;20738;-76
2024/01/02 02:43:04;;;;;;;4.37;1.47;;;;;;;;;;5024717;28;20214;-76
2024/01/02 02:45:32;;;;;;;2.87;1.20;;;;;;;;;;5026525;28;20557;-76
2024/01/02 02:47:58;;;;;;;1.50;0.97;;;;;;;;;;5023095;28;20708;-77
2024/01/02 02:50:24;;;;;;;2.17;1.17;;;;;;;;;;5026900;28;20328;-76
2024/01/02 02:52:50;;;;;;;2.37;1.20;;;;;;;;;;5020660;28;20202;-78
2024/01/02 02:55:17;;;;;;;4.10;1.20;;;;;;;;;;5030281;28;20182;-76
2024/01/02 02:57:43;;;;;;;1.30;1.00;;;;;;;;;;5025641;28;20206;-77
2024/01/02 03:00:10;;;;;;;2.03;1.10;;;;;;;;;;5026023;28;20209;-77
2024/01/02 03:02:36;;;;;;;1.40;0.90;;;;;;;;;;5025033;28;20300;-77
2024/01/02 03:05:02;;;;;;;2.67;1.10;;;;;;;;;;5025403;28;20190;-77
2024/01/02 03:07:29;;;;;;;3.47;1.33;;;;;;;;;;5030081;28;20512;-76
2024/01/02 03:09:55;;;;;;;2.73;1.00;;;;;;;;;;5021826;28;20219;-77
2024/01/02 03:12:21;;;;;;;2.03;1.20;;;;;;;;;;5028748;28;20285;-76
2024/01/02 03:14:47;;;;;;;3.43;1.10;;;;;;;;;;5027549;28;20178;-76
2024/01/02 03:17:13;;;;;;;1.70;1.00;;;;;;;;;;5028654;28;20657;-77
2024/01/02 03:19:39;;;;;;;2.03;1.10;;;;;;;;;;5029267;28;20222;-77
2024/01/02 03:22:05;;;;;;;2.83;1.10;;;;;;;;;;5018235;28;20194;-77
2024/01/02 03:24:32;;;;;;;1.57;0.90;;;;;;;;;;5026235;28;20186;-76
2024/01/02 03:26:58;;;;;;;2.47;1.10;;;;;;;;;;5022478;28;20678;-77
2024/01/02 03:29:27;;;;;;;2.70;1.00;;;;;;;;;;5022614;28;20179;-77
2024/01/02 03:31:54;;;;;;;1.17;0.80;;;;;;;;;;5023718;28;20588;-77
2024/01/02 03:34:20;;;;;;;2.20;0.97;;;;;;;;;;5028791;28;20210;-77
2024/01/02 03:36:46;;;;;;;1.47;0.90;;;;;;;;;;5027086;28;20453;-76
2024/01/02 03:39:12;;;;;;;2.03;0.90;;;;;;;;;;5019054;28;20634;-77
2024/01/02 03:41:38;;;;;;;2.13;1.10;;;;;;;;;;5014542;28;20618;-77
2024/01/02 03:44:05;;;;;;;1.63;0.80;;;;;;;;;;5021610;28;20182;-77
2024/01/02 03:46:31;;;;;;;2.77;1.03;;;;;;;;;;5025945;28;20217;-76
2024/01/02 03:48:57;;;;;;;3.60;0.87;;;;;;;;;;5023635;28;20206;-77
2024/01/02 03:51:23;;;;;;;2.13;0.80;;;;;;;;;;5021247;28;20190;-77
2024/01/02 03:53:49;;;;;;;2.90;1.00;;;;;;;;;;5028554;28;20541;-76
2024/01/02 03:56:16;;;;;;;1.40;0.80;;;;;;;;;;5019270;28;20218;-77
2024/01/02 03:58:42;;;;;;;1.47;0.80;;;;;;;;;;5018791;28;20660;-76
2024/01/02 04:01:08;;;;;;;1.47;0.80;;;;;;;;;;5024436;28;20210;-76
2024/01/02 04:03:35;;;;;;;1.67;0.87;;;;;;;;;;5026687;28;20225;-76
2024/01/02 04:06:01;;;;;;;2.77;1.00;;;;;;;;;;5026589;28;20622;-77
2024/01/02 04:08:27;;;;;;;2.90;0.93;;;;;;;;;;5030154;28;20181;-77
2024/01/02 04:10:53;;;;;;;2.07;1.27;;;;;;;;;;5025742;28;20560;-77
2024/01/02 04:13:19;;;;;;;3.00;1.17;;;;;;;;;;5031514;28;20202;-77
2024/01/02 04:15:45;;;;;;;3.07;1.07;;;;;;;;;;5029826;28;20193;-76
2024/01/02 04:18:11;;;;;;;2.03;0.93;;;;;;;;;;5025559;28;20179;-76
2024/01/02 04:20:37;;;;;;;3.47;1.17;;;;;;;;;;5027375;28;20564;-77
2024/01/02 04:23:04;;;;;;;1.80;0.70;;;;;;;;;;5032690;28;20350;-76
2024/01/02 04:25:30;;;;;;;0.90;0.70;;;;;;;;;;5027833;28;20186;-77
2024/01/02 04:27:56;;;;;;;1.77;0.90;;;;;;;;;;5012051;28;20248;-77
2024/01/02 04:30:23;;;;;;;1.50;0.90;;;;;;;;;;5032005;28;20191;-79
2024/01/02 04:32:49;;;;;;;1.60;0.80;;;;;;;;;;5022335;28;20202;-79
2024/01/02 04:35:15;;;;;;;1.57;0.80;;;;;;;;;;5021179;28;20214;-77
2024/01/02 04:37:42;;;;;;;1.00;0.80;;;;;;;;;;5029002;28;20195;-77
2024/01/02 04:40:10;;;;;;;0.80;0.80;;;;;;;;;;5024123;28;20196;-76
2024/01/02 04:42:37;;;;;;;3.80;0.80;;;;;;;;;;5028845;28;20206;-76
2024/01/02 04:45:03;;;;;;;1.33;0.80;;;;;;;;;;5024507;28;20559;-76
2024/01/02 04:47:30;;;;;;;1.00;0.80;;;;;;;;;;5028689;28;20232;-77
2024/01/02 04:49:56;;;;;;;3.00;0.90;;;;;;;;;;5030319;28;20212;-76
2024/01/02 04:52:22;;;;;;;2.10;0.93;;;;;;;;;;5029940;28;20198;-76
2024/01/02 04:54:48;;;;;;;2.30;0.83;;;;;;;;;;5025952;28;20222;-76
2024/01/02 04:57:16;;;;;;;1.20;0.80;;;;;;;;;;5021465;28;20217;-77
2024/01/02 04:59:42;;;;;;;2.60;0.90;;;;;;;;;;5012560;28;20198;-77
2024/01/02 05:02:08;;;;;;;1.63;0.90;;;;;;;;;;5027481;28;20206;-76
2024/01/02 05:04:34;;;;;;;0.97;0.80;;;;;;;;;;5030688;28;20190;-77
2024/01/02 05:07:01;;;;;;;1.63;0.90;;;;;;;;;;5029795;28;20305;-77
2024/01/02 05:09:27;;;;;;;0.83;0.73;;;;;;;;;;5026240;28;20530;-76
2024/01/02 05:11:54;;;;;;;3.63;1.30;;;;;;;;;;5022764;28;20820;-76
2024/01/02 05:14:20;;;;;;;1.90;0.80;;;;;;;;;;5016500;28;20192;-77
2024/01/02 05:16:47;;;;;;;1.87;0.90;;;;;;;;;;5021155;28;20187;-77
2024/01/02 05:19:13;;;;;;;2.43;0.73;;;;;;;;;;5025349;28;20635;-76
2024/01/02 05:21:39;;;;;;;2.60;0.90;;;;;;;;;;5024150;28;20755;-77
2024/01/02 05:24:05;;;;;;;1.27;0.87;;;;;;;;;;5029177;28;20600;-77
2024/01/02 05:26:31;;;;;;;0.70;0.70;;;;;;;;;;5026093;28;20340;-77
2024/01/02 05:28:58;;;;;;;1.13;0.80;;;;;;;;;;5027221;28;20533;-77
2024/01/02 05:31:24;;;;;;;1.90;0.70;;;;;;;;;;5025148;28;20206;-77
2024/01/02 05:33:50;;;;;;;0.70;0.70;;;;;;;;;;5026389;28;20193;-77
2024/01/02 05:36:16;;;;;;;0.80;0.80;;;;;;;;;;5030956;28;20186;-76
2024/01/02 05:38:42;;;;;;;0.90;0.70;;;;;;;;;;5027801;28;20184;-77
2024/01/02 05:41:08;;;;;;;1.63;0.70;;;;;;;;;;5027507;28;20198;-77
2024/01/02 05:43:35;;;;;;;2.30;0.80;;;;;;;;;;5018002;28;20664;-77
2024/01/02 05:46:01;;;;;;;1.57;0.50;;;;;;;;;;5018535;28;20665;-77
2024/01/02 05:48:27;;;;;;;2.70;0.80;;;;;;;;;;5024551;28;20250;-77
2024/01/02 05:50:53;;;;;;;1.00;0.90;;;;;;;;;;5021542;28;20214;-77
2024/01/02 05:53:20;;;;;;;1.13;0.60;;;;;;;;;;5026995;28;20658;-77
2024/01/02 05:55:46;;;;;;;0.77;0.67;;;;;;;;;;5028574;28;20186;-76
2024/01/02 05:58:12;;;;;;;1.57;0.90;;;;;;;;;;5025505;28;20188;-77
2024/01/02 06:00:38;;;;;;;0.70;0.70;;;;;;;;;;5023738;28;20654;-76
2024/01/02 06:03:04;;;;;;;1.97;0.60;;;;;;;;;;5022893;28;20203;-77
2024/01/02 06:05:30;;;;;;;0.97;0.80;;;;;;;;;;5026943;28;20186;-77
2024/01/02 06:07:58;;;;;;;1.43;0.73;;;;;;;;;;5026315;28;20663;-77
2024/01/02 06:10:24;;;;;;;0.83;0.73;;;;;;;;;;5027696;28;20183;-77
2024/01/02 06:12:50;;;;;;;0.90;0.70;;;;;;;;;;5024799;28;20528;-77
2024/01/02 06:15:16;;;;;;;1.00;0.70;;;;;;;;;;4999537;28;20207;-77
2024/01/02 06:17:42;;;;;;;1.60;0.93;;;;;;;;;;5023063;28;20179;-77
2024/01/02 06:20:10;;;;;;;0.80;0.60;;;;;;;;;;5021961;28;20222;-77
2024/01/02 06:22:39;;;;;;;0.97;0.70;;;;;;;;;;5026556;28;20238;-77
2024/01/02 06:25:09;;;;;;;2.47;0.70;;;;;;;;;;5026042;28;20564;-76
2024/01/02 06:27:35;;;;;;;0.60;0.60;;;;;;;;;;5027701;28;20237;-77
2024/01/02 06:30:03;;;;;;;1.47;0.70;;;;;;;;;;5025539;28;20595;-77
2024/01/02 06:32:30;;;;;;;0.80;0.63;;;;;;;;;;5029076;28;20209;-77
2024/01/02 06:34:57;;;;;;;1.13;0.70;;;;;;;;;;5026921;28;20237;-77
2024/01/02 06:37:24;;;;;;;0.97;0.70;;;;;;;;;;5025382;28;20182;-77
2024/01/02 06:39:50;;;;;;;1.87;0.70;;;;;;;;;;5025704;28;20538;-76
2024/01/02 06:42:17;;;;;;;0.60;0.60;;;;;;;;;;5018429;28;20202;-77
2024/01/02 06:44:43;;;;;;;0.60;0.60;;;;;;;;;;5020359;28;20183;-76
2024/01/02 06:47:09;;;;;;;0.80;0.70;;;;;;;;;;5029200;28;20280;-79
2024/01/02 06:49:35;;;;;;;0.63;0.60;;;;;;;;;;5029020;28;20616;-76
2024/01/02 06:52:02;;;;;;;0.90;0.70;;;;;;;;;;5023767;28;20202;-76
2024/01/02 06:54:28;;;;;;;1.07;0.70;;;;;;;;;;5022328;28;20674;-77
2024/01/02 06:56:54;;;;;;;0.97;0.87;;;;;;;;;;5021693;28;20214;-77
2024/01/02 06:59:20;;;;;;;1.33;0.90;;;;;;;;;;5028992;28;20182;-76
2024/01/02 07:01:46;;;;;;;1.10;0.70;;;;;;;;;;5028988;28;20780;-76
2024/01/02 07:04:12;;;;;;;1.50;0.70;;;;;;;;;;5027928;28;20187;-77
2024/01/02 07:06:39;;;;;;;0.80;0.57;;;;;;;;;;5021643;28;20579;-77
2024/01/02 07:09:05;;;;;;;0.70;0.70;;;;;;;;;;5029916;28;20178;-77
2024/01/02 07:11:31;;;;;;;0.97;0.77;;;;;;;;;;5025798;28;20260;-80
2024/01/02 07:13:57;;;;;;;0.60;0.60;;;;;;;;;;5027242;28;20175;-78
2024/01/02 07:16:24;;;;;;;2.33;0.70;;;;;;;;;;5028334;28;20283;-78
2024/01/02 07:18:50;;;;;;;1.33;0.80;;;;;;;;;;5021809;28;20206;-78
2024/01/02 07:21:16;;;;;;;0.97;0.80;;;;;;;;;;5005517;28;20193;-78
2024/01/02 07:23:42;;;;;;;1.17;0.70;;;;;;;;;;5021340;28;20183;-79
2024/01/02 07:26:09;;;;;;;1.17;0.70;;;;;;;;;;5024042;28;20437;-75
2024/01/02 07:28:38;;;;;;;4.93;0.73;;;;;;;;;;5037880;28;20182;-76
2024/01/02 07:31:04;;;;;;;0.70;0.70;;;;;;;;;;5026119;28;20654;-78
2024/01/02 07:33:31;;;;;;;0.77;0.77;;;;;;;;;;5027752;28;20207;-76
2024/01/02 07:35:57;;;;;;;0.63;0.63;;;;;;;;;;5030960;28;20189;-77
2024/01/02 07:38:26;;;;;;;2.07;0.80;;;;;;;;;;5031458;28;20543;-80
2024/01/02 07:40:55;;;;;;;2.77;0.70;;;;;;;;;;5031712;28;20236;-76
2024/01/02 07:43:22;;;;;;;0.73;0.70;;;;;;;;;;5030521;28;20579;-83
2024/01/02 07:45:48;;;;;;;1.00;0.70;;;;;;;;;;5014739;28;20684;-76
2024/01/02 07:48:14;;;;;;;1.07;0.90;;;;;;;;;;5027077;28;20206;-77
2024/01/02 07:50:41;;;;;;;0.80;0.80;;;;;;;;;;5023149;28;20189;-76
2024/01/02 07:53:07;;;;;;;1.10;0.90;;;;;;;;;;5027225;28;20206;-76
2024/01/02 07:55:33;;;;;;;1.13;0.90;;;;;;;;;;5028983;28;20270;-76
2024/01/02 07:57:59;;;;;;;1.43;0.83;;;;;;;;;;5027986;28;20305;-76
2024/01/02 08:00:25;;;;;;;1.00;0.80;;;;;;;;;;5027594;28;20252;-76
2024/01/02 08:02:51;;;;;;;0.80;0.70;;;;;;;;;;5027753;28;20230;-76
2024/01/02 08:05:17;;;;;;;1.90;0.90;;;;;;;;;;5028568;28;20188;-76
2024/01/02 08:07:43;;;;;;;1.97;1.10;;;;;;;;;;5027493;28;20222;-76
2024/01/02 08:10:10;;;;;;;1.03;0.80;;;;;;;;;;5028340;28;20174;-77
2024/01/02 08:12:36;;;;;;;1.47;0.90;;;;;;;;;;5035559;28;20206;-79
2024/01/02 08:15:02;;;;;;;0.80;0.70;;;;;;;;;;5036789;28;20179;-80
2024/01/02 08:17:29;;;;;;;1.03;0.77;;;;;;;;;;5035527;28;20190;-79
2024/01/02 08:19:55;;;;;;;2.30;1.00;;;;;;;;;;5036181;28;20193;-79
2024/01/02 08:22:21;;;;;;;1.40;0.90;;;;;;;;;;5034132;28;20202;-79
2024/01/02 08:24:48;;;;;;;2.13;1.03;;;;;;;;;;5034900;28;20302;-79
2024/01/02 08:27:14;;;;;;;0.83;0.73;;;;;;;;;;5032402;28;20293;-79
2024/01/02 08:29:40;;;;;;;1.27;0.70;;;;;;;;;;5034089;28;20269;-79
2024/01/02 08:32:07;;;;;;;1.03;0.90;;;;;;;;;;5035267;28;20194;-79
2024/01/02 08:34:33;;;;;;;1.03;0.80;;;;;;;;;;5017420;28;20194;-78
2024/01/02 08:36:59;;;;;;;0.80;0.80;;;;;;;;;;5028370;28;20198;-78
2024/01/02 08:39:25;;;;;;;0.83;0.77;;;;;;;;;;5027041;28;20197;-77
2024/01/02 08:41:51;;;;;;;0.70;0.70;;;;;;;;;;5028394;28;20256;-77
2024/01/02 08:44:17;;;;;;;3.70;0.73;;;;;;;;;;5027908;28;20194;-77
2024/01/02 08:46:43;;;;;;;0.90;0.70;;;;;;;;;;5027757;28;20211;-77
2024/01/02 08:49:11;;;;;;;1.37;0.70;;;;;;;;;;5028527;28;20328;-77
2024/01/02 08:51:37;;;;;;;0.77;0.70;;;;;;;;;;5028498;28;20206;-77
2024/01/02 08:54:04;;;;;;;0.90;0.80;;;;;;;;;;5026277;28;20287;-77
2024/01/02 08:56:30;;;;;;;0.97;0.70;;;;;;;;;;5025315;28;20549;-77
2024/01/02 08:58:56;;;;;;;3.00;1.00;;;;;;;;;;5028851;28;20514;-77
2024/01/02 09:01:22;;;;;;;0.80;0.80;;;;;;;;;;5029333;28;20182;-78
2024/01/02 09:03:48;;;;;;;0.57;0.57;;;;;;;;;;5028680;28;20663;-77
2024/01/02 09:06:19;;;;;;;1.77;0.83;;;;;;;;;;5028755;28;20182;-77
2024/01/02 09:08:46;;;;;;;1.37;0.70;;;;;;;;;;5028219;28;20272;-78
2024/01/02 09:11:12;;;;;;;0.83;0.70;;;;;;;;;;5025689;28;20194;-78
2024/01/02 09:13:39;;;;;;;0.97;0.80;;;;;;;;;;5026766;28;20182;-77
2024/01/02 09:16:07;;;;;;;1.77;0.90;;;;;;;;;;5026384;28;20256;-77
2024/01/02 09:18:34;;;;;;;1.20;0.93;;;;;;;;;;5028450;28;20191;-77
2024/01/02 09:21:00;;;;;;;1.27;1.00;;;;;;;;;;5028098;28;20194;-77
2024/01/02 09:23:26;;;;;;;0.77;0.77;;;;;;;;;;5027542;28;20301;-77
2024/01/02 09:25:54;;;;;;;1.20;0.70;;;;;;;;;;5024170;28;20268;-78
2024/01/02 09:28:21;;;;;;;0.90;0.80;;;;;;;;;;5025843;28;20410;-77
2024/01/02 09:30:48;;;;;;;1.17;0.90;;;;;;;;;;5028335;28;20198;-76
2024/01/02 09:33:15;;;;;;;1.57;0.90;;;;;;;;;;5028375;28;20206;-78
2024/01/02 09:35:42;;;;;;;1.50;0.97;;;;;;;;;;5008996;28;20635;-78
2024/01/02 09:38:08;;;;;;;2.07;1.10;;;;;;;;;;5028316;28;20646;-78
2024/01/02 09:40:53;;;;;;;1.40;1.30;;;;;;;;;;5023892;28;20277;-78
2024/01/02 09:43:26;;;;;;;1.10;1.00;;;;;;;;;;5025762;28;20202;-77
2024/01/02 09:46:11;;;;;;;2.03;1.00;;;;;;;;;;5025884;28;20762;-78
2024/01/02 09:48:43;;;;;;;2.93;1.10;;;;;;;;;;5025445;28;20217;-78
2024/01/02 09:51:15;;;;;;;1.60;1.10;;;;;;;;;;5027013;28;20621;-78
2024/01/02 09:53:53;;;;;;;1.83;0.93;;;;;;;;;;5028082;28;20197;-79
2024/01/02 09:56:40;;;;;;;1.23;1.00;;;;;;;;;;5030592;28;20189;-79
2024/01/02 09:59:18;;;;;;;1.50;0.90;;;;;;;;;;5024318;28;20261;-77
2024/01/02 10:02:04;;;;;;;1.20;1.10;;;;;;;;;;5028006;28;20218;-79
2024/01/02 10:04:51;;;;;;;2.73;0.97;;;;;;;;;;5014596;28;20999;-80
2024/01/02 10:07:27;;;;;;;1.20;1.00;;;;;;;;;;5029779;28;20210;-80
2024/01/02 10:10:08;;;;;;;2.00;1.20;;;;;;;;;;5027916;28;20188;-79
2024/01/02 10:12:52;;;;;;;2.20;0.90;;;;;;;;;;5028617;28;20202;-80
2024/01/02 10:15:31;;;;;;;1.30;1.03;;;;;;;;;;5029242;28;20175;-79
2024/01/02 10:18:06;;;;;;;1.53;1.00;;;;;;;;;;5030885;28;20194;-80
2024/01/02 10:20:35;;;;;;;2.63;1.10;;;;;;;;;;5027796;28;20178;-80
2024/01/02 10:23:15;;;;;;;0.90;0.80;;;;;;;;;;5030284;28;20746;-79
2024/01/02 10:25:41;;;;;;;1.97;1.20;;;;;;;;;;5026768;28;20242;-79
2024/01/02 10:28:13;;;;;;;1.73;1.13;;;;;;;;;;5029300;28;20206;-79
2024/01/02 10:30:45;;;;;;;2.10;1.30;;;;;;;;;;5029708;28;20348;-79
2024/01/02 10:33:31;;;;;;;2.70;1.87;;;;;;;;;;5027225;28;20209;-80
2024/01/02 10:36:04;;;;;;;2.30;1.20;;;;;;;;;;5026889;28;20217;-77
2024/01/02 10:38:34;;;;;;;1.50;1.00;;;;;;;;;;5028295;28;20193;-77
2024/01/02 10:41:06;;;;;;;1.37;1.00;;;;;;;;;;5024015;28;20186;-77
2024/01/02 10:43:37;;;;;;;1.47;1.00;;;;;;;;;;5026075;28;20206;-77
2024/01/02 10:46:06;;;;;;;1.13;0.83;;;;;;;;;;5024874;28;20214;-77
2024/01/02 10:48:55;;;;;;;1.40;1.00;;;;;;;;;;5026244;28;20242;-77
2024/01/02 10:51:23;;;;;;;1.07;0.97;;;;;;;;;;5026856;28;20260;-77
2024/01/02 10:53:57;;;;;;;1.27;1.00;;;;;;;;;;5023487;28;20600;-77
2024/01/02 10:56:37;;;;;;;1.73;0.87;;;;;;;;;;5026721;28;20181;-77
2024/01/02 10:59:04;;;;;;;1.33;0.83;;;;;;;;;;5027897;28;20178;-77
2024/01/02 11:01:33;;;;;;;1.37;0.93;;;;;;;;;;5023757;28;20205;-77
2024/01/02 11:04:18;;;;;;;1.10;1.00;;;;;;;;;;5024287;28;20201;-77
2024/01/02 11:06:45;;;;;;;0.80;0.80;;;;;;;;;;5007526;28;20570;-77
2024/01/02 11:09:11;;;;;;;1.00;0.70;;;;;;;;;;5026161;28;20191;-77
2024/01/02 11:11:39;;;;;;;1.60;1.00;;;;;;;;;;5024751;28;20674;-78
2024/01/02 11:14:06;;;;;;;0.90;0.80;;;;;;;;;;5022638;28;20197;-78
2024/01/02 11:16:34;;;;;;;1.50;0.90;;;;;;;;;;5023804;28;20190;-77
2024/01/02 11:19:04;;;;;;;1.60;0.97;;;;;;;;;;5025715;28;20214;-77
2024/01/02 11:21:49;;;;;;;2.13;1.33;;;;;;;;;;5024969;28;21135;-81
2024/01/02 11:24:18;;;;;;;1.23;0.93;;;;;;;;;;5028695;28;20182;-78
2024/01/02 11:26:44;;;;;;;1.23;0.97;;;;;;;;;;5028437;28;20210;-78
2024/01/02 11:29:22;;;;;;;1.43;0.93;;;;;;;;;;5011265;28;20556;-75
2024/01/02 11:31:52;;;;;;;0.80;0.80;;;;;;;;;;5026374;28;20202;-79
2024/01/02 11:34:18;;;;;;;0.83;0.70;;;;;;;;;;5018344;28;20186;-80
2024/01/02 11:36:44;;;;;;;0.80;0.73;;;;;;;;;;4996831;28;20194;-75
2024/01/02 11:39:14;;;;;;;3.70;0.80;;;;;;;;;;5012876;28;20256;-74
2024/01/02 11:41:59;;;;;;;1.00;0.80;;;;;;;;;;5015342;28;20687;-77
2024/01/02 11:44:28;;;;;;;1.03;0.80;;;;;;;;;;5038189;28;20201;-74
2024/01/02 11:46:58;;;;;;;0.70;0.70;;;;;;;;;;5023458;28;20210;-74
2024/01/02 11:49:28;;;;;;;1.10;1.00;;;;;;;;;;5028358;28;20209;-74
2024/01/02 11:52:01;;;;;;;1.30;0.90;;;;;;;;;;5025512;28;20582;-74
2024/01/02 11:54:28;;;;;;;1.23;0.80;;;;;;;;;;5025599;28;20185;-74
2024/01/02 11:56:54;;;;;;;1.10;0.77;;;;;;;;;;5021058;28;20273;-74
2024/01/02 11:59:49;;;;;;;1.00;0.90;;;;;;;;;;5026093;28;20251;-74
2024/01/02 12:02:25;;;;;;;1.20;0.80;;;;;;;;;;5015477;28;20210;-74
2024/01/02 12:05:04;;;;;;;1.40;0.87;;;;;;;;;;5024751;28;20554;-74
2024/01/02 12:07:31;;;;;;;1.40;0.83;;;;;;;;;;5021780;28;20214;-76
2024/01/02 12:09:58;;;;;;;1.27;1.00;;;;;;;;;;5005396;28;20190;-75
2024/01/02 12:12:31;;;;;;;1.43;1.00;;;;;;;;;;5022643;28;20580;-73
2024/01/02 12:14:57;;;;;;;1.20;1.10;;;;;;;;;;5021172;28;20480;-74
2024/01/02 12:17:24;;;;;;;1.47;1.00;;;;;;;;;;5045538;28;20448;-74
2024/01/02 12:19:51;;;;;;;1.50;0.93;;;;;;;;;;5029404;28;20655;-74
2024/01/02 12:22:17;;;;;;;1.10;1.00;;;;;;;;;;5032340;28;20218;-75
2024/01/02 12:24:45;;;;;;;1.67;1.00;;;;;;;;;;5031986;28;20606;-75
2024/01/02 12:27:15;;;;;;;1.10;0.90;;;;;;;;;;5031415;28;20686;-75
2024/01/02 12:29:50;;;;;;;1.00;0.90;;;;;;;;;;5032677;28;20182;-75
2024/01/02 12:32:34;;;;;;;1.00;0.90;;;;;;;;;;5027894;28;20296;-75
2024/01/02 12:35:09;;;;;;;1.10;0.90;;;;;;;;;;5030975;28;20261;-75
2024/01/02 12:37:43;;;;;;;1.80;1.00;;;;;;;;;;5032514;28;20654;-75
2024/01/02 12:40:13;;;;;;;1.07;0.90;;;;;;;;;;5026723;28;20189;-75
2024/01/02 12:42:44;;;;;;;1.87;1.20;;;;;;;;;;5032352;28;20300;-74
2024/01/02 12:45:13;;;;;;;3.17;1.43;;;;;;;;;;5026709;28;20539;-74
2024/01/02 12:47:41;;;;;;;3.03;1.60;;;;;;;;;;5032243;28;20293;-74
2024/01/02 12:50:08;;;;;;;1.27;1.10;;;;;;;;;;5025117;28;20190;-74
2024/01/02 12:53:00;;;;;;;2.60;1.10;;;;;;;;;;5031887;28;20509;-74
2024/01/02 12:55:29;;;;;;;1.07;0.97;;;;;;;;;;5028087;28;20574;-74
2024/01/02 12:57:55;;;;;;;1.90;1.20;;;;;;;;;;5031954;28;20213;-74
2024/01/02 13:00:22;;;;;;;2.60;1.17;;;;;;;;;;5030153;28;20658;-74
2024/01/02 13:02:49;;;;;;;2.63;1.00;;;;;;;;;;5030606;28;20578;-74
2024/01/02 13:05:15;;;;;;;1.10;1.00;;;;;;;;;;5031188;28;20190;-74
2024/01/02 13:07:41;;;;;;;2.07;1.00;;;;;;;;;;5031593;28;20206;-74
2024/01/02 13:10:08;;;;;;;2.13;1.10;;;;;;;;;;5024739;28;20186;-74
2024/01/02 13:12:37;;;;;;;1.23;1.10;;;;;;;;;;5030774;28;20564;-74
2024/01/02 13:15:06;;;;;;;4.80;1.40;;;;;;;;;;5031592;28;20183;-74
2024/01/02 13:17:32;;;;;;;1.93;1.50;;;;;;;;;;5031133;28;20436;-74
2024/01/02 13:19:58;;;;;;;2.23;1.20;;;;;;;;;;5031493;28;20186;-74
2024/01/02 13:22:25;;;;;;;2.03;1.23;;;;;;;;;;5030744;28;20256;-74
2024/01/02 13:24:54;;;;;;;1.57;1.10;;;;;;;;;;5030696;28;20182;-74
2024/01/02 13:27:24;;;;;;;2.07;1.40;;;;;;;;;;5030301;28;20229;-74
2024/01/02 13:29:51;;;;;;;1.43;1.17;;;;;;;;;;5029153;28;20186;-74
2024/01/02 13:32:17;;;;;;;1.10;1.00;;;;;;;;;;5029901;28;20209;-74
2024/01/02 13:34:43;;;;;;;2.23;1.20;;;;;;;;;;5030770;28;20258;-74
2024/01/02 13:37:22;;;;;;;2.13;1.10;;;;;;;;;;5031290;28;20709;-74
2024/01/02 13:39:49;;;;;;;1.97;1.20;;;;;;;;;;5031564;28;20260;-74
2024/01/02 13:42:25;;;;;;;1.73;1.30;;;;;;;;;;5031021;28;20648;-74
2024/01/02 13:44:52;;;;;;;1.83;1.03;;;;;;;;;;5028490;28;20194;-74
2024/01/02 13:47:28;;;;;;;1.90;1.17;;;;;;;;;;5031291;28;20302;-74
2024/01/02 13:49:54;;;;;;;1.30;1.10;;;;;;;;;;5029310;28;20240;-74
2024/01/02 13:52:28;;;;;;;1.47;1.10;;;;;;;;;;5031000;28;20256;-75
2024/01/02 13:54:55;;;;;;;3.37;1.20;;;;;;;;;;5028720;28;20305;-74
2024/01/02 13:57:28;;;;;;;1.33;1.10;;;;;;;;;;5031154;28;20202;-77
2024/01/02 13:59:54;;;;;;;1.50;1.30;;;;;;;;;;5027849;28;20202;-74
2024/01/02 14:02:27;;;;;;;2.00;1.20;;;;;;;;;;5029318;28;20233;-74
2024/01/02 14:04:57;;;;;;;1.80;1.10;;;;;;;;;;5028856;28;20187;-74
2024/01/02 14:07:24;;;;;;;1.80;1.50;;;;;;;;;;5033132;28;20273;-74
2024/01/02 14:09:50;;;;;;;1.80;1.30;;;;;;;;;;5018045;28;20301;-74
2024/01/02 14:12:17;;;;;;;1.93;1.60;;;;;;;;;;5033624;28;20214;-75
2024/01/02 14:14:46;;;;;;;2.17;1.57;;;;;;;;;;5032516;28;20178;-74
2024/01/02 14:17:14;;;;;;;1.63;1.40;;;;;;;;;;5032768;28;20189;-75
2024/01/02 14:19:45;;;;;;;1.83;1.30;;;;;;;;;;5014897;28;20205;-75
2024/01/02 14:22:30;;;;;;;2.67;1.50;;;;;;;;;;5008247;28;20690;-74
2024/01/02 14:25:04;;;;;;;3.67;2.77;;;;;;;;;;5028100;28;20198;-74
2024/01/02 14:27:45;;;;;;;3.20;1.80;;;;;;;;;;5030244;28;20202;-74
2024/01/02 14:30:15;;;;;;;2.53;1.50;;;;;;;;;;5024855;28;20209;-74
2024/01/02 14:32:50;;;;;;;2.87;2.33;;;;;;;;;;5029927;28;20233;-74
2024/01/02 14:35:19;;;;;;;2.80;2.20;;;;;;;;;;5023086;28;20190;-74
2024/01/02 14:37:52;;;;;;;1.77;1.40;;;;;;;;;;5030189;28;20664;-74
2024/01/02 14:40:26;;;;;;;1.53;1.40;;;;;;;;;;5028541;28;20194;-74
2024/01/02 14:43:06;;;;;;;1.20;1.10;;;;;;;;;;5027680;28;20213;-77
2024/01/02 14:45:40;;;;;;;1.40;1.10;;;;;;;;;;5029507;28;20202;-77
2024/01/02 14:48:21;;;;;;;1.43;1.00;;;;;;;;;;5029645;28;20732;-73
2024/01/02 14:51:04;;;;;;;1.20;1.10;;;;;;;;;;5028361;28;20185;-74